sensor_id;sensor_type;location;lat;lon;timestamp;P1;durP1;ratioP1;P2;durP2;ratioP2
17382;SDS011;8809;51.892;8.384;2023-03-26T00:01:16;7.13;;;3.45;;
17382;SDS011;8809;51.892;8.384;2023-03-26T00:03:45;7.97;;;4.38;;
17382;SDS011;8809;51.892;8.384;2023-03-26T00:06:18;4.88;;;3.33;;
17382;SDS011;8809;51.892;8.384;2023-03-26T00:08:47;7.50;;;3.92;;
17382;SDS011;8809;51.892;8.384;2023-03-26T00:11:19;6.18;;;3.85;;
17382;SDS011;8809;51.892;8.384;2023-03-26T00:13:48;11.93;;;6.32;;
17382;SDS011;8809;51.892;8.384;2023-03-26T00:16:18;8.30;;;5.45;;
17382;SDS011;8809;51.892;8.384;2023-03-26T00:18:46;11.68;;;5.75;;
17382;SDS011;8809;51.892;8.384;2023-03-26T00:21:14;11.48;;;6.20;;
17382;SDS011;8809;51.892;8.384;2023-03-26T00:23:46;16.75;;;7.50;;
17382;SDS011;8809;51.892;8.384;2023-03-26T00:26:14;15.48;;;7.10;;
17382;SDS011;8809;51.892;8.384;2023-03-26T00:28:43;15.90;;;6.50;;
17382;SDS011;8809;51.892;8.384;2023-03-26T00:31:11;12.25;;;5.88;;
17382;SDS011;8809;51.892;8.384;2023-03-26T00:33:40;11.85;;;5.70;;
17382;SDS011;8809;51.892;8.384;2023-03-26T00:36:08;10.63;;;4.72;;
17382;SDS011;8809;51.892;8.384;2023-03-26T00:38:38;10.73;;;5.07;;
17382;SDS011;8809;51.892;8.384;2023-03-26T00:41:07;10.80;;;4.90;;
17382;SDS011;8809;51.892;8.384;2023-03-26T00:43:43;13.23;;;5.43;;
17382;SDS011;8809;51.892;8.384;2023-03-26T00:46:12;14.70;;;6.50;;
17382;SDS011;8809;51.892;8.384;2023-03-26T00:48:40;14.80;;;5.90;;
17382;SDS011;8809;51.892;8.384;2023-03-26T00:51:08;14.63;;;5.78;;
17382;SDS011;8809;51.892;8.384;2023-03-26T00:53:36;10.23;;;5.53;;
17382;SDS011;8809;51.892;8.384;2023-03-26T00:56:06;12.93;;;6.25;;
17382;SDS011;8809;51.892;8.384;2023-03-26T00:58:33;13.93;;;7.07;;
17382;SDS011;8809;51.892;8.384;2023-03-26T01:01:03;11.93;;;5.68;;
17382;SDS011;8809;51.892;8.384;2023-03-26T01:03:33;13.55;;;6.85;;
17382;SDS011;8809;51.892;8.384;2023-03-26T01:06:02;14.38;;;7.38;;
17382;SDS011;8809;51.892;8.384;2023-03-26T01:08:33;9.90;;;5.93;;
17382;SDS011;8809;51.892;8.384;2023-03-26T01:11:04;12.48;;;6.57;;
17382;SDS011;8809;51.892;8.384;2023-03-26T01:13:39;13.68;;;7.00;;
17382;SDS011;8809;51.892;8.384;2023-03-26T01:16:13;12.10;;;7.43;;
17382;SDS011;8809;51.892;8.384;2023-03-26T01:18:45;16.27;;;7.10;;
17382;SDS011;8809;51.892;8.384;2023-03-26T01:21:13;14.63;;;7.22;;
17382;SDS011;8809;51.892;8.384;2023-03-26T01:23:48;14.07;;;7.55;;
17382;SDS011;8809;51.892;8.384;2023-03-26T01:29:31;11.57;;;7.20;;
17382;SDS011;8809;51.892;8.384;2023-03-26T01:32:07;12.07;;;6.72;;
17382;SDS011;8809;51.892;8.384;2023-03-26T01:34:47;15.50;;;8.35;;
17382;SDS011;8809;51.892;8.384;2023-03-26T01:37:25;13.40;;;7.35;;
17382;SDS011;8809;51.892;8.384;2023-03-26T01:40:00;11.90;;;7.68;;
17382;SDS011;8809;51.892;8.384;2023-03-26T01:42:36;12.00;;;6.70;;
17382;SDS011;8809;51.892;8.384;2023-03-26T01:45:10;10.45;;;6.53;;
17382;SDS011;8809;51.892;8.384;2023-03-26T01:47:41;12.43;;;6.30;;
17382;SDS011;8809;51.892;8.384;2023-03-26T01:50:10;11.35;;;6.53;;
17382;SDS011;8809;51.892;8.384;2023-03-26T01:52:45;14.07;;;6.43;;
17382;SDS011;8809;51.892;8.384;2023-03-26T01:55:13;13.48;;;7.03;;
17382;SDS011;8809;51.892;8.384;2023-03-26T01:57:44;10.95;;;5.82;;
17382;SDS011;8809;51.892;8.384;2023-03-26T02:00:22;13.23;;;6.55;;
17382;SDS011;8809;51.892;8.384;2023-03-26T02:03:03;13.43;;;7.30;;
17382;SDS011;8809;51.892;8.384;2023-03-26T02:05:43;13.48;;;6.40;;
17382;SDS011;8809;51.892;8.384;2023-03-26T02:08:15;12.57;;;5.97;;
17382;SDS011;8809;51.892;8.384;2023-03-26T02:10:50;12.63;;;7.18;;
17382;SDS011;8809;51.892;8.384;2023-03-26T02:13:20;11.07;;;5.95;;
17382;SDS011;8809;51.892;8.384;2023-03-26T02:15:55;14.00;;;6.18;;
17382;SDS011;8809;51.892;8.384;2023-03-26T02:18:26;11.27;;;6.75;;
17382;SDS011;8809;51.892;8.384;2023-03-26T02:21:01;15.85;;;7.53;;
17382;SDS011;8809;51.892;8.384;2023-03-26T02:23:29;19.35;;;7.57;;
17382;SDS011;8809;51.892;8.384;2023-03-26T02:26:03;11.35;;;6.03;;
17382;SDS011;8809;51.892;8.384;2023-03-26T02:28:31;13.38;;;7.53;;
17382;SDS011;8809;51.892;8.384;2023-03-26T02:30:58;11.70;;;7.40;;
17382;SDS011;8809;51.892;8.384;2023-03-26T02:33:27;18.40;;;8.40;;
17382;SDS011;8809;51.892;8.384;2023-03-26T02:35:54;13.95;;;6.70;;
17382;SDS011;8809;51.892;8.384;2023-03-26T02:38:24;16.58;;;7.50;;
17382;SDS011;8809;51.892;8.384;2023-03-26T02:40:52;18.08;;;7.78;;
17382;SDS011;8809;51.892;8.384;2023-03-26T02:43:21;19.20;;;8.20;;
17382;SDS011;8809;51.892;8.384;2023-03-26T02:45:48;15.15;;;7.88;;
17382;SDS011;8809;51.892;8.384;2023-03-26T02:48:15;14.23;;;7.53;;
17382;SDS011;8809;51.892;8.384;2023-03-26T02:50:42;18.38;;;8.30;;
17382;SDS011;8809;51.892;8.384;2023-03-26T02:53:10;15.82;;;7.88;;
17382;SDS011;8809;51.892;8.384;2023-03-26T02:55:37;19.73;;;9.20;;
17382;SDS011;8809;51.892;8.384;2023-03-26T02:58:05;20.65;;;9.85;;
17382;SDS011;8809;51.892;8.384;2023-03-26T03:00:33;22.20;;;10.07;;
17382;SDS011;8809;51.892;8.384;2023-03-26T03:03:01;19.38;;;9.95;;
17382;SDS011;8809;51.892;8.384;2023-03-26T03:05:29;19.50;;;10.65;;
17382;SDS011;8809;51.892;8.384;2023-03-26T03:07:56;23.15;;;11.43;;
17382;SDS011;8809;51.892;8.384;2023-03-26T03:10:23;19.83;;;10.63;;
17382;SDS011;8809;51.892;8.384;2023-03-26T03:12:52;21.75;;;12.05;;
17382;SDS011;8809;51.892;8.384;2023-03-26T03:15:22;24.45;;;12.98;;
17382;SDS011;8809;51.892;8.384;2023-03-26T03:17:51;26.50;;;13.60;;
17382;SDS011;8809;51.892;8.384;2023-03-26T03:20:18;29.27;;;15.50;;
17382;SDS011;8809;51.892;8.384;2023-03-26T03:22:46;26.38;;;14.52;;
17382;SDS011;8809;51.892;8.384;2023-03-26T03:25:13;28.67;;;14.65;;
17382;SDS011;8809;51.892;8.384;2023-03-26T03:27:42;30.70;;;15.55;;
17382;SDS011;8809;51.892;8.384;2023-03-26T03:30:10;28.92;;;14.77;;
17382;SDS011;8809;51.892;8.384;2023-03-26T03:32:40;30.75;;;14.60;;
17382;SDS011;8809;51.892;8.384;2023-03-26T03:35:09;31.15;;;16.35;;
17382;SDS011;8809;51.892;8.384;2023-03-26T03:37:36;37.58;;;17.90;;
17382;SDS011;8809;51.892;8.384;2023-03-26T03:40:06;33.25;;;15.55;;
17382;SDS011;8809;51.892;8.384;2023-03-26T03:42:35;23.73;;;13.73;;
17382;SDS011;8809;51.892;8.384;2023-03-26T03:45:02;36.92;;;16.67;;
17382;SDS011;8809;51.892;8.384;2023-03-26T03:47:30;28.02;;;14.38;;
17382;SDS011;8809;51.892;8.384;2023-03-26T03:50:08;30.02;;;15.70;;
17382;SDS011;8809;51.892;8.384;2023-03-26T03:52:39;40.53;;;17.50;;
17382;SDS011;8809;51.892;8.384;2023-03-26T03:55:06;24.58;;;13.57;;
17382;SDS011;8809;51.892;8.384;2023-03-26T03:57:34;29.65;;;14.10;;
17382;SDS011;8809;51.892;8.384;2023-03-26T04:00:06;23.77;;;12.13;;
17382;SDS011;8809;51.892;8.384;2023-03-26T04:02:36;25.15;;;14.18;;
17382;SDS011;8809;51.892;8.384;2023-03-26T04:05:07;24.23;;;12.32;;
17382;SDS011;8809;51.892;8.384;2023-03-26T04:07:37;21.27;;;12.05;;
17382;SDS011;8809;51.892;8.384;2023-03-26T04:10:05;25.38;;;11.35;;
17382;SDS011;8809;51.892;8.384;2023-03-26T04:12:34;34.13;;;13.73;;
17382;SDS011;8809;51.892;8.384;2023-03-26T04:15:01;21.23;;;11.40;;
17382;SDS011;8809;51.892;8.384;2023-03-26T04:17:28;18.80;;;10.50;;
17382;SDS011;8809;51.892;8.384;2023-03-26T04:19:56;30.98;;;11.25;;
17382;SDS011;8809;51.892;8.384;2023-03-26T04:22:30;27.75;;;10.77;;
17382;SDS011;8809;51.892;8.384;2023-03-26T04:25:02;21.38;;;9.90;;
17382;SDS011;8809;51.892;8.384;2023-03-26T04:27:39;24.33;;;8.50;;
17382;SDS011;8809;51.892;8.384;2023-03-26T04:30:11;15.70;;;7.70;;
17382;SDS011;8809;51.892;8.384;2023-03-26T04:32:44;16.20;;;7.72;;
17382;SDS011;8809;51.892;8.384;2023-03-26T04:35:14;24.17;;;8.77;;
17382;SDS011;8809;51.892;8.384;2023-03-26T04:37:45;19.63;;;8.30;;
17382;SDS011;8809;51.892;8.384;2023-03-26T04:40:18;22.63;;;8.65;;
17382;SDS011;8809;51.892;8.384;2023-03-26T04:42:47;21.15;;;7.97;;
17382;SDS011;8809;51.892;8.384;2023-03-26T04:45:15;20.83;;;7.38;;
17382;SDS011;8809;51.892;8.384;2023-03-26T04:47:46;28.50;;;7.43;;
17382;SDS011;8809;51.892;8.384;2023-03-26T04:50:15;18.10;;;6.55;;
17382;SDS011;8809;51.892;8.384;2023-03-26T04:52:42;11.93;;;5.57;;
17382;SDS011;8809;51.892;8.384;2023-03-26T04:55:12;18.92;;;6.50;;
17382;SDS011;8809;51.892;8.384;2023-03-26T04:57:48;20.27;;;5.80;;
17382;SDS011;8809;51.892;8.384;2023-03-26T05:00:20;22.20;;;5.95;;
17382;SDS011;8809;51.892;8.384;2023-03-26T05:02:48;16.45;;;5.20;;
17382;SDS011;8809;51.892;8.384;2023-03-26T05:05:15;12.52;;;4.75;;
17382;SDS011;8809;51.892;8.384;2023-03-26T05:07:43;31.35;;;6.80;;
17382;SDS011;8809;51.892;8.384;2023-03-26T05:10:11;16.27;;;5.13;;
17382;SDS011;8809;51.892;8.384;2023-03-26T05:12:41;12.55;;;4.32;;
17382;SDS011;8809;51.892;8.384;2023-03-26T05:15:09;11.50;;;3.75;;
17382;SDS011;8809;51.892;8.384;2023-03-26T05:17:37;14.43;;;4.95;;
17382;SDS011;8809;51.892;8.384;2023-03-26T05:20:06;24.73;;;5.50;;
17382;SDS011;8809;51.892;8.384;2023-03-26T05:22:41;19.08;;;5.10;;
17382;SDS011;8809;51.892;8.384;2023-03-26T05:25:09;20.77;;;5.40;;
17382;SDS011;8809;51.892;8.384;2023-03-26T05:27:36;20.73;;;5.93;;
17382;SDS011;8809;51.892;8.384;2023-03-26T05:30:06;21.20;;;5.28;;
17382;SDS011;8809;51.892;8.384;2023-03-26T05:32:34;11.43;;;4.35;;
17382;SDS011;8809;51.892;8.384;2023-03-26T05:35:02;19.27;;;6.13;;
17382;SDS011;8809;51.892;8.384;2023-03-26T05:37:30;27.95;;;6.00;;
17382;SDS011;8809;51.892;8.384;2023-03-26T05:39:57;20.02;;;5.95;;
17382;SDS011;8809;51.892;8.384;2023-03-26T05:42:25;16.25;;;5.05;;
17382;SDS011;8809;51.892;8.384;2023-03-26T05:44:52;16.10;;;5.10;;
17382;SDS011;8809;51.892;8.384;2023-03-26T05:47:21;17.20;;;4.53;;
17382;SDS011;8809;51.892;8.384;2023-03-26T05:49:48;17.50;;;4.97;;
17382;SDS011;8809;51.892;8.384;2023-03-26T05:52:15;17.20;;;4.88;;
17382;SDS011;8809;51.892;8.384;2023-03-26T05:54:43;14.43;;;4.00;;
17382;SDS011;8809;51.892;8.384;2023-03-26T05:57:10;11.93;;;4.22;;
17382;SDS011;8809;51.892;8.384;2023-03-26T05:59:37;13.15;;;4.43;;
17382;SDS011;8809;51.892;8.384;2023-03-26T06:02:04;10.77;;;3.50;;
17382;SDS011;8809;51.892;8.384;2023-03-26T06:04:33;15.57;;;5.05;;
17382;SDS011;8809;51.892;8.384;2023-03-26T06:07:05;12.20;;;3.75;;
17382;SDS011;8809;51.892;8.384;2023-03-26T06:09:34;11.82;;;4.35;;
17382;SDS011;8809;51.892;8.384;2023-03-26T06:12:03;7.32;;;3.08;;
17382;SDS011;8809;51.892;8.384;2023-03-26T06:14:30;7.45;;;3.10;;
17382;SDS011;8809;51.892;8.384;2023-03-26T06:16:57;20.77;;;6.15;;
17382;SDS011;8809;51.892;8.384;2023-03-26T06:19:25;8.90;;;3.72;;
17382;SDS011;8809;51.892;8.384;2023-03-26T06:21:53;9.50;;;3.65;;
17382;SDS011;8809;51.892;8.384;2023-03-26T06:24:21;7.40;;;3.55;;
17382;SDS011;8809;51.892;8.384;2023-03-26T06:26:48;6.63;;;3.10;;
17382;SDS011;8809;51.892;8.384;2023-03-26T06:29:15;9.57;;;3.75;;
17382;SDS011;8809;51.892;8.384;2023-03-26T06:31:42;8.88;;;3.67;;
17382;SDS011;8809;51.892;8.384;2023-03-26T06:34:09;9.60;;;4.03;;
17382;SDS011;8809;51.892;8.384;2023-03-26T06:36:36;21.08;;;7.18;;
17382;SDS011;8809;51.892;8.384;2023-03-26T06:39:05;15.82;;;6.22;;
17382;SDS011;8809;51.892;8.384;2023-03-26T06:41:32;11.93;;;5.75;;
17382;SDS011;8809;51.892;8.384;2023-03-26T06:43:59;15.55;;;6.43;;
17382;SDS011;8809;51.892;8.384;2023-03-26T06:46:28;12.13;;;5.22;;
17382;SDS011;8809;51.892;8.384;2023-03-26T06:48:55;21.80;;;8.35;;
17382;SDS011;8809;51.892;8.384;2023-03-26T06:51:22;14.93;;;6.82;;
17382;SDS011;8809;51.892;8.384;2023-03-26T06:53:49;25.88;;;9.48;;
17382;SDS011;8809;51.892;8.384;2023-03-26T06:56:18;32.05;;;12.57;;
17382;SDS011;8809;51.892;8.384;2023-03-26T06:58:45;27.88;;;11.05;;
17382;SDS011;8809;51.892;8.384;2023-03-26T07:01:12;23.98;;;10.73;;
17382;SDS011;8809;51.892;8.384;2023-03-26T07:03:39;19.98;;;10.20;;
17382;SDS011;8809;51.892;8.384;2023-03-26T07:06:07;20.58;;;9.52;;
17382;SDS011;8809;51.892;8.384;2023-03-26T07:08:34;18.52;;;8.32;;
17382;SDS011;8809;51.892;8.384;2023-03-26T07:11:01;16.42;;;8.40;;
17382;SDS011;8809;51.892;8.384;2023-03-26T07:13:33;18.27;;;8.80;;
17382;SDS011;8809;51.892;8.384;2023-03-26T07:16:00;18.52;;;9.85;;
17382;SDS011;8809;51.892;8.384;2023-03-26T07:18:27;35.83;;;13.30;;
17382;SDS011;8809;51.892;8.384;2023-03-26T07:20:55;29.38;;;14.05;;
17382;SDS011;8809;51.892;8.384;2023-03-26T07:23:23;22.42;;;10.75;;
17382;SDS011;8809;51.892;8.384;2023-03-26T07:25:51;31.27;;;13.55;;
17382;SDS011;8809;51.892;8.384;2023-03-26T07:28:21;26.08;;;12.15;;
17382;SDS011;8809;51.892;8.384;2023-03-26T07:30:57;37.20;;;13.40;;
17382;SDS011;8809;51.892;8.384;2023-03-26T07:33:30;23.02;;;10.95;;
17382;SDS011;8809;51.892;8.384;2023-03-26T07:36:06;19.92;;;9.65;;
17382;SDS011;8809;51.892;8.384;2023-03-26T07:38:50;17.38;;;8.95;;
17382;SDS011;8809;51.892;8.384;2023-03-26T07:41:33;13.27;;;7.60;;
17382;SDS011;8809;51.892;8.384;2023-03-26T07:44:31;11.18;;;7.18;;
17382;SDS011;8809;51.892;8.384;2023-03-26T07:47:14;9.68;;;6.18;;
17382;SDS011;8809;51.892;8.384;2023-03-26T07:49:51;12.23;;;7.05;;
17382;SDS011;8809;51.892;8.384;2023-03-26T07:52:20;12.35;;;7.03;;
17382;SDS011;8809;51.892;8.384;2023-03-26T07:54:48;34.95;;;12.57;;
17382;SDS011;8809;51.892;8.384;2023-03-26T07:57:17;27.80;;;12.07;;
17382;SDS011;8809;51.892;8.384;2023-03-26T07:59:54;23.75;;;9.95;;
17382;SDS011;8809;51.892;8.384;2023-03-26T08:02:37;19.25;;;8.43;;
17382;SDS011;8809;51.892;8.384;2023-03-26T08:05:15;29.42;;;10.45;;
17382;SDS011;8809;51.892;8.384;2023-03-26T08:07:52;19.73;;;9.38;;
17382;SDS011;8809;51.892;8.384;2023-03-26T08:10:29;19.83;;;8.68;;
17382;SDS011;8809;51.892;8.384;2023-03-26T08:13:07;15.82;;;8.10;;
17382;SDS011;8809;51.892;8.384;2023-03-26T08:15:43;24.05;;;8.95;;
17382;SDS011;8809;51.892;8.384;2023-03-26T08:18:24;18.13;;;6.72;;
17382;SDS011;8809;51.892;8.384;2023-03-26T08:21:02;10.00;;;5.65;;
17382;SDS011;8809;51.892;8.384;2023-03-26T08:23:34;23.55;;;7.40;;
17382;SDS011;8809;51.892;8.384;2023-03-26T08:26:12;25.65;;;7.65;;
17382;SDS011;8809;51.892;8.384;2023-03-26T08:28:49;25.75;;;7.78;;
17382;SDS011;8809;51.892;8.384;2023-03-26T08:31:30;16.58;;;5.85;;
17382;SDS011;8809;51.892;8.384;2023-03-26T08:34:02;10.15;;;5.43;;
17382;SDS011;8809;51.892;8.384;2023-03-26T08:36:29;10.90;;;3.92;;
17382;SDS011;8809;51.892;8.384;2023-03-26T08:38:56;9.30;;;4.00;;
17382;SDS011;8809;51.892;8.384;2023-03-26T08:41:42;16.58;;;5.45;;
17382;SDS011;8809;51.892;8.384;2023-03-26T08:44:38;11.43;;;4.97;;
17382;SDS011;8809;51.892;8.384;2023-03-26T08:47:39;14.25;;;5.32;;
17382;SDS011;8809;51.892;8.384;2023-03-26T08:56:38;22.50;;;8.25;;
17382;SDS011;8809;51.892;8.384;2023-03-26T08:59:36;14.98;;;6.32;;
17382;SDS011;8809;51.892;8.384;2023-03-26T09:02:30;13.02;;;4.55;;
17382;SDS011;8809;51.892;8.384;2023-03-26T09:11:21;16.20;;;6.45;;
17382;SDS011;8809;51.892;8.384;2023-03-26T09:14:13;12.52;;;4.75;;
17382;SDS011;8809;51.892;8.384;2023-03-26T09:17:11;9.32;;;3.90;;
17382;SDS011;8809;51.892;8.384;2023-03-26T09:20:02;9.60;;;3.58;;
17382;SDS011;8809;51.892;8.384;2023-03-26T09:23:09;7.03;;;3.40;;
17382;SDS011;8809;51.892;8.384;2023-03-26T09:26:06;20.42;;;9.05;;
17382;SDS011;8809;51.892;8.384;2023-03-26T09:28:50;13.63;;;6.00;;
17382;SDS011;8809;51.892;8.384;2023-03-26T09:31:44;12.60;;;5.57;;
17382;SDS011;8809;51.892;8.384;2023-03-26T09:34:28;11.90;;;5.50;;
17382;SDS011;8809;51.892;8.384;2023-03-26T09:37:10;18.23;;;6.65;;
17382;SDS011;8809;51.892;8.384;2023-03-26T09:39:45;20.23;;;5.45;;
17382;SDS011;8809;51.892;8.384;2023-03-26T09:42:22;19.33;;;5.65;;
17382;SDS011;8809;51.892;8.384;2023-03-26T09:45:07;15.48;;;4.78;;
17382;SDS011;8809;51.892;8.384;2023-03-26T09:47:54;12.85;;;4.38;;
17382;SDS011;8809;51.892;8.384;2023-03-26T09:50:52;15.13;;;3.70;;
17382;SDS011;8809;51.892;8.384;2023-03-26T09:56:50;16.27;;;4.75;;
17382;SDS011;8809;51.892;8.384;2023-03-26T09:59:34;15.63;;;4.43;;
17382;SDS011;8809;51.892;8.384;2023-03-26T10:02:39;17.73;;;4.10;;
17382;SDS011;8809;51.892;8.384;2023-03-26T10:05:21;12.40;;;4.30;;
17382;SDS011;8809;51.892;8.384;2023-03-26T10:08:04;14.68;;;4.38;;
17382;SDS011;8809;51.892;8.384;2023-03-26T10:10:42;10.70;;;4.18;;
17382;SDS011;8809;51.892;8.384;2023-03-26T10:13:20;21.20;;;4.93;;
17382;SDS011;8809;51.892;8.384;2023-03-26T10:15:58;19.02;;;4.55;;
17382;SDS011;8809;51.892;8.384;2023-03-26T10:18:42;19.17;;;4.53;;
17382;SDS011;8809;51.892;8.384;2023-03-26T10:21:18;17.75;;;4.60;;
17382;SDS011;8809;51.892;8.384;2023-03-26T10:24:17;21.55;;;5.35;;
17382;SDS011;8809;51.892;8.384;2023-03-26T10:27:01;19.30;;;4.72;;
17382;SDS011;8809;51.892;8.384;2023-03-26T10:29:51;16.40;;;5.15;;
17382;SDS011;8809;51.892;8.384;2023-03-26T10:32:40;13.25;;;4.47;;
17382;SDS011;8809;51.892;8.384;2023-03-26T10:35:19;14.95;;;4.47;;
17382;SDS011;8809;51.892;8.384;2023-03-26T10:38:00;8.73;;;3.72;;
17382;SDS011;8809;51.892;8.384;2023-03-26T10:40:39;10.32;;;4.00;;
17382;SDS011;8809;51.892;8.384;2023-03-26T10:43:21;12.75;;;3.00;;
17382;SDS011;8809;51.892;8.384;2023-03-26T10:46:12;8.50;;;3.17;;
17382;SDS011;8809;51.892;8.384;2023-03-26T10:51:59;13.15;;;4.05;;
17382;SDS011;8809;51.892;8.384;2023-03-26T10:54:34;10.75;;;3.72;;
17382;SDS011;8809;51.892;8.384;2023-03-26T10:57:11;6.40;;;3.00;;
17382;SDS011;8809;51.892;8.384;2023-03-26T10:59:47;5.15;;;2.80;;
17382;SDS011;8809;51.892;8.384;2023-03-26T11:02:20;7.47;;;3.50;;
17382;SDS011;8809;51.892;8.384;2023-03-26T11:04:54;10.50;;;3.45;;
17382;SDS011;8809;51.892;8.384;2023-03-26T11:07:33;14.13;;;4.18;;
17382;SDS011;8809;51.892;8.384;2023-03-26T11:10:08;10.13;;;3.17;;
17382;SDS011;8809;51.892;8.384;2023-03-26T11:12:39;10.80;;;3.00;;
17382;SDS011;8809;51.892;8.384;2023-03-26T11:15:20;7.43;;;2.97;;
17382;SDS011;8809;51.892;8.384;2023-03-26T11:17:55;9.73;;;3.33;;
17382;SDS011;8809;51.892;8.384;2023-03-26T11:20:31;8.43;;;3.30;;
17382;SDS011;8809;51.892;8.384;2023-03-26T11:23:20;8.45;;;2.80;;
17382;SDS011;8809;51.892;8.384;2023-03-26T11:26:05;17.27;;;4.07;;
17382;SDS011;8809;51.892;8.384;2023-03-26T11:31:32;10.05;;;3.17;;
17382;SDS011;8809;51.892;8.384;2023-03-26T11:34:08;10.18;;;3.30;;
17382;SDS011;8809;51.892;8.384;2023-03-26T11:36:39;8.95;;;2.67;;
17382;SDS011;8809;51.892;8.384;2023-03-26T11:39:13;13.38;;;4.28;;
17382;SDS011;8809;51.892;8.384;2023-03-26T11:41:47;13.23;;;4.40;;
17382;SDS011;8809;51.892;8.384;2023-03-26T11:44:18;10.75;;;4.53;;
17382;SDS011;8809;51.892;8.384;2023-03-26T11:46:50;10.05;;;3.85;;
17382;SDS011;8809;51.892;8.384;2023-03-26T11:49:22;7.38;;;3.28;;
17382;SDS011;8809;51.892;8.384;2023-03-26T11:51:53;8.68;;;3.50;;
17382;SDS011;8809;51.892;8.384;2023-03-26T11:54:24;6.80;;;3.60;;
17382;SDS011;8809;51.892;8.384;2023-03-26T11:56:52;11.40;;;4.22;;
17382;SDS011;8809;51.892;8.384;2023-03-26T11:59:24;8.45;;;3.88;;
17382;SDS011;8809;51.892;8.384;2023-03-26T12:01:55;10.43;;;3.65;;
17382;SDS011;8809;51.892;8.384;2023-03-26T12:04:25;7.05;;;3.42;;
17382;SDS011;8809;51.892;8.384;2023-03-26T12:06:55;7.07;;;2.88;;
17382;SDS011;8809;51.892;8.384;2023-03-26T12:09:25;4.97;;;3.15;;
17382;SDS011;8809;51.892;8.384;2023-03-26T12:11:52;12.75;;;4.85;;
17382;SDS011;8809;51.892;8.384;2023-03-26T12:14:25;11.18;;;3.90;;
17382;SDS011;8809;51.892;8.384;2023-03-26T12:16:57;21.40;;;6.13;;
17382;SDS011;8809;51.892;8.384;2023-03-26T12:19:26;15.10;;;5.55;;
17382;SDS011;8809;51.892;8.384;2023-03-26T12:21:59;7.40;;;3.72;;
17382;SDS011;8809;51.892;8.384;2023-03-26T12:24:28;11.23;;;4.20;;
17382;SDS011;8809;51.892;8.384;2023-03-26T12:26:56;10.32;;;3.90;;
17382;SDS011;8809;51.892;8.384;2023-03-26T12:29:27;8.20;;;3.47;;
17382;SDS011;8809;51.892;8.384;2023-03-26T12:32:02;10.02;;;3.90;;
17382;SDS011;8809;51.892;8.384;2023-03-26T12:34:32;7.68;;;2.90;;
17382;SDS011;8809;51.892;8.384;2023-03-26T12:37:02;6.68;;;3.20;;
17382;SDS011;8809;51.892;8.384;2023-03-26T12:39:32;7.75;;;2.95;;
17382;SDS011;8809;51.892;8.384;2023-03-26T12:42:03;10.63;;;3.35;;
17382;SDS011;8809;51.892;8.384;2023-03-26T12:44:35;7.30;;;3.05;;
17382;SDS011;8809;51.892;8.384;2023-03-26T12:47:12;8.98;;;3.17;;
17382;SDS011;8809;51.892;8.384;2023-03-26T12:49:43;7.28;;;3.05;;
17382;SDS011;8809;51.892;8.384;2023-03-26T12:52:22;6.88;;;2.80;;
17382;SDS011;8809;51.892;8.384;2023-03-26T12:55:02;6.93;;;2.88;;
17382;SDS011;8809;51.892;8.384;2023-03-26T12:57:40;8.35;;;3.28;;
17382;SDS011;8809;51.892;8.384;2023-03-26T13:00:20;8.25;;;3.08;;
17382;SDS011;8809;51.892;8.384;2023-03-26T13:05:53;8.65;;;2.95;;
17382;SDS011;8809;51.892;8.384;2023-03-26T13:08:40;4.40;;;2.28;;
17382;SDS011;8809;51.892;8.384;2023-03-26T13:11:30;5.35;;;2.40;;
17382;SDS011;8809;51.892;8.384;2023-03-26T13:14:09;5.28;;;2.33;;
17382;SDS011;8809;51.892;8.384;2023-03-26T13:17:02;4.53;;;2.30;;
17382;SDS011;8809;51.892;8.384;2023-03-26T13:19:35;6.35;;;2.45;;
17382;SDS011;8809;51.892;8.384;2023-03-26T13:22:13;4.55;;;2.50;;
17382;SDS011;8809;51.892;8.384;2023-03-26T13:24:53;8.13;;;2.65;;
17382;SDS011;8809;51.892;8.384;2023-03-26T13:27:29;5.15;;;2.90;;
17382;SDS011;8809;51.892;8.384;2023-03-26T13:30:06;3.80;;;2.35;;
17382;SDS011;8809;51.892;8.384;2023-03-26T13:32:54;4.97;;;2.65;;
17382;SDS011;8809;51.892;8.384;2023-03-26T13:35:48;5.55;;;2.50;;
17382;SDS011;8809;51.892;8.384;2023-03-26T13:38:21;7.57;;;2.55;;
17382;SDS011;8809;51.892;8.384;2023-03-26T13:40:56;4.05;;;2.40;;
17382;SDS011;8809;51.892;8.384;2023-03-26T13:43:33;4.30;;;2.75;;
17382;SDS011;8809;51.892;8.384;2023-03-26T13:46:10;4.93;;;2.50;;
17382;SDS011;8809;51.892;8.384;2023-03-26T13:48:46;3.83;;;2.42;;
17382;SDS011;8809;51.892;8.384;2023-03-26T13:51:20;6.15;;;2.60;;
17382;SDS011;8809;51.892;8.384;2023-03-26T13:53:54;4.78;;;2.70;;
17382;SDS011;8809;51.892;8.384;2023-03-26T13:56:27;5.22;;;2.42;;
17382;SDS011;8809;51.892;8.384;2023-03-26T13:59:00;3.67;;;2.30;;
17382;SDS011;8809;51.892;8.384;2023-03-26T14:01:33;4.18;;;2.63;;
17382;SDS011;8809;51.892;8.384;2023-03-26T14:04:11;5.63;;;3.05;;
17382;SDS011;8809;51.892;8.384;2023-03-26T14:06:44;6.15;;;2.90;;
17382;SDS011;8809;51.892;8.384;2023-03-26T14:09:23;5.00;;;2.80;;
17382;SDS011;8809;51.892;8.384;2023-03-26T14:14:55;5.05;;;3.00;;
17382;SDS011;8809;51.892;8.384;2023-03-26T14:17:27;6.78;;;2.97;;
17382;SDS011;8809;51.892;8.384;2023-03-26T14:20:25;7.38;;;3.28;;
17382;SDS011;8809;51.892;8.384;2023-03-26T14:23:08;5.38;;;3.10;;
17382;SDS011;8809;51.892;8.384;2023-03-26T14:26:00;5.20;;;3.00;;
17382;SDS011;8809;51.892;8.384;2023-03-26T14:31:40;3.65;;;2.47;;
17382;SDS011;8809;51.892;8.384;2023-03-26T14:34:15;4.43;;;2.80;;
17382;SDS011;8809;51.892;8.384;2023-03-26T14:37:08;2.85;;;2.47;;
17382;SDS011;8809;51.892;8.384;2023-03-26T14:42:51;3.38;;;2.00;;
17382;SDS011;8809;51.892;8.384;2023-03-26T14:45:26;3.15;;;2.05;;
17382;SDS011;8809;51.892;8.384;2023-03-26T14:48:31;2.60;;;1.80;;
17382;SDS011;8809;51.892;8.384;2023-03-26T14:51:18;3.30;;;1.90;;
17382;SDS011;8809;51.892;8.384;2023-03-26T14:53:55;3.10;;;2.00;;
17382;SDS011;8809;51.892;8.384;2023-03-26T14:59:31;3.50;;;1.80;;
17382;SDS011;8809;51.892;8.384;2023-03-26T15:02:43;2.88;;;1.70;;
17382;SDS011;8809;51.892;8.384;2023-03-26T15:08:46;5.53;;;2.38;;
17382;SDS011;8809;51.892;8.384;2023-03-26T15:11:56;2.72;;;2.00;;
17382;SDS011;8809;51.892;8.384;2023-03-26T15:17:58;5.63;;;2.53;;
17382;SDS011;8809;51.892;8.384;2023-03-26T15:27:12;4.30;;;2.30;;
17382;SDS011;8809;51.892;8.384;2023-03-26T15:33:21;3.55;;;2.33;;
17382;SDS011;8809;51.892;8.384;2023-03-26T15:39:34;7.03;;;3.20;;
17382;SDS011;8809;51.892;8.384;2023-03-26T15:42:41;8.63;;;4.07;;
17382;SDS011;8809;51.892;8.384;2023-03-26T15:45:18;7.43;;;3.45;;
17382;SDS011;8809;51.892;8.384;2023-03-26T15:51:19;8.60;;;3.50;;
17382;SDS011;8809;51.892;8.384;2023-03-26T15:53:55;8.32;;;3.40;;
17382;SDS011;8809;51.892;8.384;2023-03-26T15:56:48;8.43;;;3.63;;
17382;SDS011;8809;51.892;8.384;2023-03-26T15:59:28;8.90;;;3.90;;
17382;SDS011;8809;51.892;8.384;2023-03-26T16:02:09;10.52;;;4.00;;
17382;SDS011;8809;51.892;8.384;2023-03-26T16:04:47;9.63;;;4.05;;
17382;SDS011;8809;51.892;8.384;2023-03-26T16:10:21;9.75;;;3.90;;
17382;SDS011;8809;51.892;8.384;2023-03-26T16:16:18;10.73;;;4.60;;
17382;SDS011;8809;51.892;8.384;2023-03-26T16:18:52;10.75;;;3.67;;
17382;SDS011;8809;51.892;8.384;2023-03-26T16:21:37;10.27;;;4.07;;
17382;SDS011;8809;51.892;8.384;2023-03-26T16:24:27;9.32;;;4.18;;
17382;SDS011;8809;51.892;8.384;2023-03-26T16:27:00;8.98;;;4.03;;
17382;SDS011;8809;51.892;8.384;2023-03-26T16:29:33;9.02;;;3.75;;
17382;SDS011;8809;51.892;8.384;2023-03-26T16:32:25;11.32;;;4.28;;
17382;SDS011;8809;51.892;8.384;2023-03-26T16:34:54;22.88;;;5.03;;
17382;SDS011;8809;51.892;8.384;2023-03-26T16:37:37;14.15;;;4.72;;
17382;SDS011;8809;51.892;8.384;2023-03-26T16:40:27;13.25;;;4.40;;
17382;SDS011;8809;51.892;8.384;2023-03-26T16:43:02;12.40;;;3.80;;
17382;SDS011;8809;51.892;8.384;2023-03-26T16:45:42;10.35;;;3.70;;